Time;durP1;ratioP1;P1;durP2;ratioP2;P2;SDS_P1;SDS_P2;PMS_P1;PMS_P2;Temp;Humidity;BMP_temperature;BMP_pressure;BME280_temperature;BME280_humidity;BME280_pressure;Samples;Min_cycle;Max_cycle;Signal;HPM_P1;HPM_P2
2022/12/01 00:01:35;;;;;;;62.45;37.30;;;9.00;99.90;;;8.94;81.75;102628.03;5116709;28;20059;-67
2022/12/01 00:04:04;;;;;;;63.00;38.55;;;9.00;99.90;;;9.15;82.17;102664.72;5116847;28;20039;-66
2022/12/01 00:06:34;;;;;;;61.17;37.72;;;8.90;99.90;;;9.20;81.78;102674.56;5116902;28;20050;-66
2022/12/01 00:11:48;;;;;;;61.28;37.95;;;8.90;99.90;;;9.00;81.93;102652.84;5116611;28;20122;-66
2022/12/01 00:14:16;;;;;;;62.42;39.53;;;8.90;99.90;;;9.20;81.89;102676.31;5116475;28;20036;-66
2022/12/01 00:16:45;;;;;;;61.97;38.50;;;8.90;99.90;;;9.24;81.35;102671.19;5116720;28;20040;-66
2022/12/01 00:19:13;;;;;;;62.10;37.97;;;9.00;99.90;;;9.19;81.53;102667.53;5116143;28;20082;-66
2022/12/01 00:21:43;;;;;;;64.47;38.95;;;9.00;99.90;;;9.19;81.66;102675.44;5116354;28;20040;-66
2022/12/01 00:24:12;;;;;;;64.85;38.83;;;9.00;99.90;;;9.09;81.60;102678.66;5116420;28;20477;-66
2022/12/01 00:26:40;;;;;;;62.10;37.35;;;8.90;99.90;;;9.06;82.41;102671.53;5116817;28;20449;-66
2022/12/01 00:29:08;;;;;;;60.92;38.22;;;8.90;99.90;;;8.90;82.21;102650.78;5098203;28;20051;-66
2022/12/01 00:31:37;;;;;;;69.85;39.80;;;8.80;99.90;;;9.03;81.89;102675.81;5116364;28;20051;-66
2022/12/01 00:34:05;;;;;;;62.17;38.22;;;8.80;99.90;;;9.10;82.07;102680.41;5116067;28;20489;-66
2022/12/01 00:36:39;;;;;;;64.07;40.47;;;8.80;99.90;;;8.36;82.02;102550.59;5116360;28;20048;-67
2022/12/01 00:39:10;;;;;;;65.20;38.90;;;8.80;99.90;;;8.99;82.25;102671.28;5116005;28;20051;-66
2022/12/01 00:41:38;;;;;;;;;;;8.80;99.90;;;8.92;82.31;102666.69;5116739;28;20072;-66
2022/12/01 00:44:06;;;;;;;63.63;38.75;;;8.70;99.90;;;8.95;82.59;102669.41;5115880;28;19923;-66
2022/12/01 00:46:34;;;;;;;63.75;38.72;;;8.70;99.90;;;8.92;82.88;102671.97;5116130;28;20048;-66
2022/12/01 00:49:03;;;;;;;68.70;41.58;;;8.70;99.90;;;8.88;82.75;102672.72;5115819;28;20047;-67
2022/12/01 00:51:31;;;;;;;66.90;40.40;;;8.70;99.90;;;8.90;83.12;102684.22;5114801;28;20050;-66
2022/12/01 00:53:59;;;;;;;63.90;39.35;;;8.70;99.90;;;8.95;83.01;102683.50;5115735;28;20042;-66
2022/12/01 00:56:29;;;;;;;69.07;39.65;;;8.70;99.90;;;8.92;82.86;102688.66;5097658;28;20050;-66
2022/12/01 00:58:58;;;;;;;61.83;38.75;;;8.70;99.90;;;8.87;82.89;102679.72;5097952;28;20040;-66
2022/12/01 01:01:26;;;;;;;67.15;40.33;;;8.60;99.90;;;8.85;82.75;102672.59;5115970;28;20043;-66
2022/12/01 01:03:55;;;;;;;68.38;40.22;;;8.60;99.90;;;8.79;82.74;102677.66;5115665;28;20036;-66
2022/12/01 01:06:23;;;;;;;67.45;40.35;;;8.60;99.90;;;8.70;82.96;102674.75;5115780;28;20046;-66
2022/12/01 01:08:51;;;;;;;67.90;41.47;;;8.50;99.90;;;8.78;83.12;102678.53;5115444;28;20036;-66
2022/12/01 01:11:20;;;;;;;68.03;41.00;;;8.50;99.90;;;8.80;82.62;102687.41;5115662;28;20118;-66
2022/12/01 01:13:49;;;;;;;71.88;42.45;;;8.60;99.90;;;8.83;83.10;102691.03;5115351;28;20040;-68
2022/12/01 01:16:20;;;;;;;71.37;41.73;;;8.60;99.90;;;8.88;83.19;102685.91;5115357;28;20488;-66
2022/12/01 01:18:49;;;;;;;77.00;43.42;;;8.60;99.90;;;8.86;82.92;102691.13;5115355;28;20075;-66
2022/12/01 01:21:20;;;;;;;72.82;41.67;;;8.70;99.90;;;8.85;83.06;102684.06;5115390;28;20488;-66
2022/12/01 01:23:49;;;;;;;70.10;41.80;;;8.60;99.90;;;8.87;83.21;102694.66;5115087;28;20050;-66
2022/12/01 01:26:20;;;;;;;79.03;44.63;;;8.70;99.90;;;8.72;83.48;102675.69;5115084;28;20399;-66
2022/12/01 01:28:51;;;;;;;76.50;44.33;;;8.70;99.90;;;8.81;83.89;102702.38;5115047;28;20040;-66
2022/12/01 01:31:22;;;;;;;75.60;43.42;;;8.60;99.90;;;8.82;83.82;102701.53;5115309;28;20441;-67
2022/12/01 01:33:51;;;;;;;79.68;44.25;;;8.60;99.90;;;8.61;84.32;102680.66;5115253;28;20143;-66
2022/12/01 01:36:20;;;;;;;83.55;45.67;;;8.60;99.90;;;8.76;84.54;102711.88;5115189;28;20043;-66
2022/12/01 01:38:50;;;;;;;81.60;45.88;;;8.60;99.90;;;8.77;84.54;102703.09;5115402;28;20046;-66
2022/12/01 01:41:19;;;;;;;81.95;45.22;;;8.60;99.90;;;8.75;84.72;102700.44;5114674;28;20036;-66
2022/12/01 01:43:51;;;;;;;78.97;44.45;;;8.60;99.90;;;8.56;84.90;102698.03;5114656;28;20039;-66
2022/12/01 01:46:22;;;;;;;82.45;45.65;;;8.50;99.90;;;8.73;85.46;102695.97;5096811;28;20040;-66
2022/12/01 01:48:52;;;;;;;;;;;8.60;99.90;;;8.70;85.14;102698.50;5115361;28;20063;-66
2022/12/01 01:51:27;;;;;;;84.28;44.42;;;8.60;99.90;;;8.76;85.42;102711.88;5114623;28;20010;-66
2022/12/01 01:54:00;;;;;;;85.25;47.03;;;8.60;99.90;;;8.74;85.50;102709.22;5114575;28;20114;-66
2022/12/01 01:56:29;;;;;;;86.03;47.10;;;8.60;99.90;;;8.71;85.55;102708.22;5114819;28;20050;-66
2022/12/01 01:58:59;;;;;;;84.85;47.20;;;8.50;99.90;;;8.71;85.40;102708.22;5114692;28;20062;-66
2022/12/01 02:01:28;;;;;;;91.40;48.10;;;8.50;99.90;;;8.69;85.45;102705.50;5114495;28;20426;-66
2022/12/01 02:03:56;;;;;;;91.97;47.17;;;8.50;99.90;;;8.79;85.51;102712.88;5114093;28;20050;-66
2022/12/01 02:06:25;;;;;;;81.22;46.17;;;8.60;99.90;;;8.77;85.83;102708.38;5114290;28;20047;-67
2022/12/01 02:08:53;;;;;;;85.95;46.47;;;8.60;99.90;;;8.78;85.58;102708.47;5114252;28;20042;-66
2022/12/01 02:11:51;;;;;;;87.88;45.13;;;8.60;99.90;;;8.79;85.56;102704.97;5114767;28;20116;-66
2022/12/01 02:14:49;;;;;;;87.47;47.35;;;8.60;99.90;;;8.83;85.28;102712.13;5114108;28;20481;-66
2022/12/01 02:17:30;;;;;;;84.68;46.88;;;8.70;99.90;;;8.84;85.50;102699.84;5114676;28;20051;-66
2022/12/01 02:20:35;;;;;;;86.88;46.05;;;8.70;99.90;;;8.74;85.25;102701.28;5114245;28;20062;-66
2022/12/01 02:23:28;;;;;;;85.72;45.67;;;8.60;99.90;;;8.71;85.35;102697.66;5096193;28;20058;-66
2022/12/01 02:26:16;;;;;;;83.70;45.80;;;8.50;99.90;;;8.75;85.65;102689.88;5113971;28;20040;-67
2022/12/01 02:29:24;;;;;;;87.70;46.78;;;8.50;99.90;;;8.71;85.45;102698.53;5114482;28;20088;-66
2022/12/01 02:32:00;;;;;;;85.68;47.72;;;8.50;99.90;;;8.71;85.60;102692.38;5080424;28;20100;-66
2022/12/01 02:34:35;;;;;;;89.13;46.90;;;8.50;99.90;;;8.66;85.19;102686.03;5113896;28;20043;-66
2022/12/01 02:37:11;;;;;;;92.78;48.53;;;8.50;99.90;;;8.65;85.68;102681.63;5114424;28;20388;-66
2022/12/01 02:39:52;;;;;;;83.22;46.25;;;8.50;99.90;;;8.63;85.58;102686.84;5114054;28;20044;-66
2022/12/01 02:45:19;;;;;;;90.35;49.10;;;8.50;99.90;;;8.75;85.34;102679.31;5112803;28;20051;-66
2022/12/01 02:47:53;;;;;;;87.97;46.75;;;8.50;99.90;;;8.72;85.06;102686.25;5113711;28;20035;-66
2022/12/01 02:50:24;;;;;;;85.80;46.80;;;8.50;99.90;;;8.71;85.14;102692.38;5113916;28;20078;-66
2022/12/01 02:52:54;;;;;;;88.18;48.38;;;8.50;99.90;;;8.67;84.88;102690.50;5113907;28;20096;-66
2022/12/01 02:55:22;;;;;;;89.78;47.92;;;8.50;99.90;;;8.68;85.29;102695.81;5113658;28;20051;-66
2022/12/01 02:57:50;;;;;;;85.85;47.30;;;8.50;99.90;;;8.67;84.86;102699.28;5114084;28;20073;-66
2022/12/01 03:00:19;;;;;;;85.55;47.63;;;8.50;99.90;;;8.68;85.13;102687.91;5113461;28;20044;-65
2022/12/01 03:03:09;;;;;;;88.95;46.97;;;8.50;99.90;;;8.66;85.25;102704.50;5113721;28;20050;-67
2022/12/01 03:05:48;;;;;;;85.93;46.77;;;8.50;99.90;;;8.67;85.05;102698.41;5113348;28;20580;-66
2022/12/01 03:08:26;;;;;;;92.57;48.95;;;8.50;99.90;;;8.64;85.27;102699.19;5114031;28;20042;-66
2022/12/01 03:10:57;;;;;;;93.18;48.90;;;8.40;99.90;;;8.69;85.33;102696.72;5113995;28;20036;-66
2022/12/01 03:13:38;;;;;;;92.43;49.00;;;8.50;99.90;;;8.69;84.85;102704.63;5113439;28;20043;-66
2022/12/01 03:16:12;;;;;;;91.65;47.42;;;8.50;99.90;;;8.58;84.82;102695.44;5117081;28;20047;-67
2022/12/01 03:18:49;;;;;;;86.43;47.35;;;8.40;99.90;;;8.56;85.54;102690.13;5117597;28;20052;-66
2022/12/01 03:21:25;;;;;;;86.07;47.67;;;8.40;99.90;;;8.58;85.30;102693.72;5118147;28;20043;-66
2022/12/01 03:23:58;;;;;;;86.10;47.58;;;8.40;99.90;;;8.59;85.20;102698.16;5117749;28;20062;-66
2022/12/01 03:26:31;;;;;;;89.20;48.00;;;8.40;99.90;;;8.62;84.88;102689.44;5118029;28;20075;-66
2022/12/01 03:29:05;;;;;;;93.88;49.25;;;8.40;99.90;;;8.56;85.19;102689.22;5117409;28;20134;-66
2022/12/01 03:31:39;;;;;;;91.38;48.47;;;8.30;99.90;;;8.60;85.09;102691.13;5099392;28;20126;-66
2022/12/01 03:34:14;;;;;;;88.35;47.55;;;8.40;99.90;;;8.60;85.47;102696.41;5117325;28;20144;-66
2022/12/01 03:36:47;;;;;;;88.10;47.45;;;8.40;99.90;;;8.57;85.12;102691.03;5099240;28;20471;-66
2022/12/01 03:39:22;;;;;;;90.20;47.40;;;8.40;99.90;;;8.59;85.11;102690.25;5117226;28;20477;-67
2022/12/01 03:41:56;;;;;;;88.03;48.47;;;8.40;99.90;;;8.64;84.96;102679.81;5117183;28;20396;-67
2022/12/01 03:44:31;;;;;;;86.97;47.75;;;8.40;99.90;;;8.57;84.96;102684.03;5117373;28;20043;-67
2022/12/01 03:47:04;;;;;;;96.15;48.17;;;8.40;99.90;;;8.56;84.76;102684.84;5117060;28;20131;-66
2022/12/01 03:49:35;;;;;;;91.10;48.10;;;8.40;99.90;;;8.54;84.96;102689.19;5117081;28;20043;-66
2022/12/01 03:52:16;;;;;;;90.43;48.08;;;8.40;99.90;;;8.41;85.12;102665.91;5117049;28;20127;-66
2022/12/01 03:54:51;;;;;;;91.78;47.88;;;8.30;99.90;;;8.53;84.83;102683.88;5117189;28;20043;-66
2022/12/01 03:57:26;;;;;;;88.80;47.47;;;8.40;99.90;;;8.50;85.34;102681.09;5117101;28;20519;-66
2022/12/01 03:59:55;;;;;;;94.30;48.72;;;8.30;99.90;;;8.51;85.51;102688.19;5116825;28;20040;-66
2022/12/01 04:02:26;;;;;;;94.57;47.92;;;8.30;99.90;;;8.60;85.56;102689.38;5098731;28;20044;-66
2022/12/01 04:04:56;;;;;;;91.88;48.80;;;8.40;99.90;;;8.53;85.23;102678.59;5116706;28;20118;-66
2022/12/01 04:07:24;;;;;;;95.85;49.30;;;8.40;99.90;;;8.60;85.10;102691.13;5117181;28;20043;-66
2022/12/01 04:09:52;;;;;;;91.82;49.67;;;8.40;99.90;;;8.47;84.89;102687.19;5116571;28;20048;-66
2022/12/01 04:12:31;;;;;;;92.63;48.42;;;8.40;99.90;;;8.52;85.50;102693.50;5116727;28;20450;-66
2022/12/01 04:15:01;;;;;;;88.70;47.55;;;8.30;99.90;;;8.50;85.22;102691.66;5116522;28;20043;-66
2022/12/01 04:17:30;;;;;;;96.80;48.33;;;8.30;99.90;;;8.51;85.54;102688.19;5116542;28;20446;-66
2022/12/01 04:20:00;;;;;;;90.78;48.13;;;8.30;99.90;;;8.51;85.93;102693.47;5116959;28;20055;-66
2022/12/01 04:22:28;;;;;;;90.47;48.53;;;8.30;99.90;;;8.60;85.38;102686.75;5116698;28;20062;-66
2022/12/01 04:24:56;;;;;;;92.95;47.85;;;8.40;99.90;;;8.55;85.10;102690.09;5116713;28;20400;-66
2022/12/01 04:27:25;;;;;;;90.13;47.50;;;8.40;99.90;;;8.54;85.29;102697.09;5097042;28;20565;-66
2022/12/01 04:29:53;;;;;;;95.53;49.17;;;8.40;99.90;;;8.53;85.40;102687.41;5116219;28;20046;-66
2022/12/01 04:32:21;;;;;;;94.05;47.38;;;8.30;99.90;;;8.51;85.04;102698.75;5116164;28;20043;-66
2022/12/01 04:34:50;;;;;;;89.32;47.13;;;8.30;99.90;;;8.54;84.92;102709.38;5116121;28;20486;-66
2022/12/01 04:37:20;;;;;;;90.82;48.75;;;8.30;99.90;;;8.55;85.13;102704.19;5116592;28;20032;-66
2022/12/01 04:39:48;;;;;;;;;;;8.40;99.90;;;8.57;84.97;102704.22;5116502;28;20070;-66
2022/12/01 04:42:17;;;;;;;94.88;48.55;;;8.40;99.90;;;8.56;84.93;102707.69;5115951;28;19923;-67
2022/12/01 04:44:45;;;;;;;90.50;48.58;;;8.40;99.90;;;8.55;85.09;102703.28;5115710;28;20508;-66
2022/12/01 04:47:13;;;;;;;98.05;50.83;;;8.40;99.90;;;8.58;85.06;102706.00;5115883;28;20100;-67
2022/12/01 04:49:42;;;;;;;89.82;48.25;;;8.40;99.90;;;8.10;84.71;102623.50;5116106;28;20403;-66
2022/12/01 04:52:10;;;;;;;86.80;48.15;;;8.30;99.90;;;8.47;84.75;102702.13;5115803;28;20055;-66
2022/12/01 04:54:40;;;;;;;88.68;48.08;;;8.30;99.90;;;8.47;85.07;102704.75;5115972;28;20451;-66
2022/12/01 04:57:08;;;;;;;92.10;47.97;;;8.30;99.90;;;8.46;85.36;102700.34;5115709;28;20050;-66
2022/12/01 04:59:36;;;;;;;90.80;48.13;;;8.30;99.90;;;8.47;85.39;102696.84;5115922;28;20297;-66
2022/12/01 05:02:05;;;;;;;94.03;47.25;;;8.20;99.90;;;8.45;85.45;102701.16;5115911;28;20114;-66
2022/12/01 05:04:37;;;;;;;88.35;48.05;;;8.20;99.90;;;8.47;85.49;102696.84;5115473;28;20036;-66
2022/12/01 05:07:05;;;;;;;92.93;47.67;;;8.30;99.90;;;8.46;85.48;102695.94;5115559;28;20051;-66
2022/12/01 05:09:33;;;;;;;93.57;50.28;;;8.30;99.90;;;8.45;85.32;102694.16;5097475;28;20443;-66
2022/12/01 05:12:03;;;;;;;90.05;49.63;;;8.20;99.90;;;8.42;85.58;102687.91;5115410;28;20044;-66
2022/12/01 05:14:31;;;;;;;87.95;48.33;;;8.20;99.90;;;8.48;85.32;102699.53;5115835;28;20048;-66
2022/12/01 05:17:01;;;;;;;87.78;46.97;;;8.20;99.90;;;8.46;85.73;102700.34;5115320;28;20035;-66
2022/12/01 05:22:15;;;;;;;87.88;47.45;;;8.30;99.90;;;8.38;85.44;102709.72;5115261;28;20075;-66
2022/12/01 05:24:43;;;;;;;90.60;47.97;;;8.20;99.90;;;8.51;85.68;102711.94;5115326;28;20404;-66
2022/12/01 05:27:13;;;;;;;91.10;47.28;;;8.30;99.90;;;8.47;85.47;102705.66;5097112;28;20419;-66
2022/12/01 05:29:41;;;;;;;91.78;48.47;;;8.30;99.90;;;8.34;85.25;102700.81;5115617;28;20054;-66
2022/12/01 05:32:10;;;;;;;90.80;48.28;;;8.20;99.90;;;8.36;85.62;102692.97;5115000;28;20050;-66
2022/12/01 05:34:38;;;;;;;94.80;49.13;;;8.20;99.90;;;8.33;85.42;102698.13;5115235;28;20040;-66
2022/12/01 05:37:06;;;;;;;89.50;48.25;;;8.20;99.90;;;8.34;85.47;102702.56;5114791;28;20039;-66
2022/12/01 05:39:34;;;;;;;90.65;48.88;;;8.10;99.90;;;8.35;85.71;102696.44;5114769;28;20065;-66
2022/12/01 05:42:03;;;;;;;92.28;48.70;;;8.10;99.90;;;8.24;85.60;102693.41;5114772;28;20404;-66
2022/12/01 05:44:32;;;;;;;92.00;47.30;;;8.10;99.90;;;8.30;85.70;102705.94;5096988;28;20449;-66
2022/12/01 05:47:01;;;;;;;88.25;47.13;;;8.10;99.90;;;8.28;85.48;102697.06;5114920;28;20097;-66
2022/12/01 05:49:29;;;;;;;90.45;47.47;;;8.10;99.90;;;8.32;85.33;102701.59;5115228;28;20047;-66
2022/12/01 05:51:57;;;;;;;88.85;46.50;;;8.10;99.90;;;8.21;85.19;102703.81;5115131;28;20044;-66
2022/12/01 05:54:25;;;;;;;89.70;47.15;;;8.10;99.90;;;8.30;85.39;102709.47;5114575;28;20047;-66
2022/12/01 05:56:54;;;;;;;85.45;45.65;;;8.10;99.90;;;8.27;84.92;102713.72;5114554;28;20478;-66
2022/12/01 05:59:22;;;;;;;93.32;47.80;;;8.10;99.90;;;8.19;85.07;102710.78;5114975;28;20036;-66
2022/12/01 06:01:52;;;;;;;88.15;45.80;;;8.00;99.90;;;8.18;84.80;102703.75;5114421;28;20043;-66
2022/12/01 06:04:20;;;;;;;87.37;46.40;;;8.00;99.90;;;8.14;85.25;102702.75;5114385;28;20039;-66
2022/12/01 06:06:48;;;;;;;92.30;47.00;;;8.00;99.90;;;8.25;85.16;102705.75;5114448;28;20386;-66
2022/12/01 06:09:17;;;;;;;92.38;46.70;;;8.00;99.90;;;8.27;85.58;102704.06;5114784;28;20046;-66
2022/12/01 06:11:45;;;;;;;88.30;46.10;;;8.10;99.90;;;8.17;85.15;102705.47;5114253;28;20035;-66
2022/12/01 06:14:19;;;;;;;84.32;45.13;;;8.10;99.90;;;8.20;85.13;102721.41;5114803;28;20040;-66
2022/12/01 06:16:47;;;;;;;86.72;46.55;;;8.00;99.90;;;8.23;85.38;102726.78;5114028;28;20505;-66
2022/12/01 06:19:17;;;;;;;89.43;47.55;;;8.00;99.90;;;8.24;85.44;102725.03;5114159;28;20059;-66
2022/12/01 06:21:45;;;;;;;87.72;46.88;;;8.00;99.90;;;8.26;85.33;102727.75;5114012;28;20054;-66
2022/12/01 06:24:13;;;;;;;94.45;46.85;;;8.10;99.90;;;8.12;85.53;102729.88;5114301;28;20047;-66
2022/12/01 06:26:42;;;;;;;87.60;45.75;;;8.00;99.90;;;8.18;86.10;102730.09;5114094;28;20051;-66
2022/12/01 06:29:10;;;;;;;96.47;47.35;;;8.00;99.90;;;8.24;86.04;102730.31;5113866;28;20036;-66
2022/12/01 06:31:38;;;;;;;90.53;46.63;;;8.10;99.90;;;8.23;86.16;102737.31;5113928;28;20100;-66
2022/12/01 06:34:07;;;;;;;86.43;45.63;;;8.10;99.90;;;8.32;86.06;102741.16;5113806;28;20048;-67
2022/12/01 06:36:36;;;;;;;88.70;45.75;;;8.10;99.90;;;8.29;86.07;102743.66;5113757;28;20046;-66
2022/12/01 06:39:08;;;;;;;88.28;45.78;;;8.10;99.90;;;8.24;86.24;102740.84;5114114;28;20040;-66
2022/12/01 06:41:36;;;;;;;93.25;46.95;;;8.10;99.90;;;8.25;86.55;102736.50;5114023;28;20086;-66
2022/12/01 06:44:05;;;;;;;89.15;48.17;;;8.10;99.90;;;8.25;86.27;102736.50;5114021;28;20040;-66
2022/12/01 06:46:33;;;;;;;89.45;46.72;;;8.10;99.90;;;8.25;87.06;102732.13;5113576;28;20054;-66
2022/12/01 06:49:02;;;;;;;92.15;48.65;;;8.10;99.90;;;8.29;86.63;102734.03;5113019;28;20492;-66
2022/12/01 06:51:33;;;;;;;87.97;46.30;;;8.10;99.90;;;8.28;86.58;102736.63;5113449;28;20036;-66
2022/12/01 06:54:02;;;;;;;97.32;49.70;;;8.10;99.90;;;8.32;86.57;102742.06;5114124;28;20044;-66
2022/12/01 06:56:33;;;;;;;91.03;46.70;;;8.10;99.90;;;8.31;87.06;102737.63;5095581;28;20400;-68
2022/12/01 06:59:01;;;;;;;94.50;48.65;;;8.10;99.90;;;8.32;87.09;102744.69;5113363;28;20481;-67
2022/12/01 07:01:30;;;;;;;93.22;48.15;;;8.10;99.90;;;8.31;86.95;102734.06;5113400;28;20221;-68
2022/12/01 07:03:58;;;;;;;97.25;48.28;;;8.10;99.90;;;8.31;87.25;102744.63;5113628;28;20097;-68
2022/12/01 07:06:27;;;;;;;97.50;49.88;;;8.10;99.90;;;8.27;86.94;102737.44;5095467;28;20054;-68
2022/12/01 07:08:55;;;;;;;94.75;48.95;;;8.10;99.90;;;8.38;86.93;102755.44;5113398;28;20040;-68
2022/12/01 07:11:25;;;;;;;93.75;49.25;;;8.20;99.90;;;8.44;87.13;102746.88;5113330;28;20046;-68
2022/12/01 07:13:56;;;;;;;94.40;49.63;;;8.20;99.90;;;8.48;86.64;102752.28;5113780;28;20055;-67
2022/12/01 07:16:24;;;;;;;95.45;49.15;;;8.30;99.90;;;8.47;87.03;102752.22;5095298;28;20040;-67
2022/12/01 07:18:52;;;;;;;92.60;48.65;;;8.30;99.90;;;8.43;86.60;102743.31;5113282;28;20120;-67
2022/12/01 07:21:21;;;;;;;87.85;46.83;;;8.30;99.90;;;8.49;86.88;102755.81;5113610;28;20499;-66
2022/12/01 07:23:49;;;;;;;97.57;49.58;;;8.30;99.90;;;8.57;86.61;102751.69;5095221;28;20531;-66
2022/12/01 07:26:18;;;;;;;96.80;47.72;;;8.40;99.90;;;8.54;87.17;102752.47;5113414;28;20048;-66
2022/12/01 07:28:48;;;;;;;103.63;49.00;;;8.40;99.90;;;8.55;86.62;102758.66;5113187;28;20458;-67
2022/12/01 07:31:19;;;;;;;85.90;46.40;;;8.40;99.90;;;8.44;86.54;102738.94;5113182;28;20039;-66
2022/12/01 07:33:47;;;;;;;93.00;47.28;;;8.30;99.90;;;8.50;86.34;102747.94;5113079;28;20044;-66
2022/12/01 07:36:16;;;;;;;93.55;47.80;;;8.30;99.90;;;8.56;86.80;102771.00;5112903;28;20045;-66
2022/12/01 07:38:44;;;;;;;92.43;48.05;;;8.40;99.90;;;8.62;86.80;102777.38;5113061;28;20050;-69
2022/12/01 07:41:15;;;;;;;98.72;46.67;;;8.40;99.90;;;8.63;86.64;102779.16;5113096;28;20042;-68
2022/12/01 07:43:43;;;;;;;87.32;45.92;;;8.50;99.90;;;8.60;86.63;102783.44;5113083;28;20441;-69
2022/12/01 07:46:15;;;;;;;90.13;47.25;;;8.50;99.90;;;8.66;87.11;102781.00;5113260;28;20036;-69
2022/12/01 07:48:50;;;;;;;97.90;48.55;;;8.50;99.90;;;8.67;87.04;102781.06;5113077;28;20044;-69
2022/12/01 07:51:19;;;;;;;86.50;45.33;;;8.50;99.90;;;8.68;86.81;102784.59;5112968;28;20040;-69
2022/12/01 07:53:49;;;;;;;89.78;48.13;;;8.50;99.90;;;8.71;87.45;102784.72;5113741;28;20043;-70
2022/12/01 07:56:19;;;;;;;87.07;47.47;;;8.50;99.90;;;8.74;87.05;102790.09;5113606;28;20066;-68
2022/12/01 07:58:47;;;;;;;91.05;47.42;;;8.50;99.90;;;8.76;86.95;102791.03;5112854;28;20035;-68
2022/12/01 08:01:19;;;;;;;86.85;46.20;;;8.60;99.90;;;8.73;87.02;102796.22;5114640;28;20085;-72
2022/12/01 08:03:49;;;;;;;93.60;47.42;;;8.60;99.90;;;8.83;86.63;102799.22;5116977;28;20428;-67
2022/12/01 08:06:18;;;;;;;92.47;48.17;;;8.60;99.90;;;8.85;86.53;102799.25;5116533;28;20040;-67
2022/12/01 08:08:47;;;;;;;89.72;47.70;;;8.60;99.90;;;8.86;86.58;102798.44;5117199;28;20043;-68
2022/12/01 08:11:18;;;;;;;88.90;48.65;;;8.70;99.90;;;8.85;86.55;102801.91;5116819;28;20035;-68
2022/12/01 08:13:47;;;;;;;94.25;47.45;;;8.70;99.90;;;8.93;86.73;102803.97;5116579;28;20493;-67
2022/12/01 08:16:21;;;;;;;86.35;45.67;;;8.70;99.90;;;8.91;86.50;102799.47;5116482;28;20047;-68
2022/12/01 08:18:50;;;;;;;90.97;47.78;;;8.70;99.90;;;8.92;87.04;102806.56;5117066;28;20067;-68
2022/12/01 08:21:21;;;;;;;91.63;47.78;;;8.70;99.90;;;8.97;87.04;102804.94;5116894;28;20504;-68
2022/12/01 08:23:54;;;;;;;95.22;46.63;;;8.80;99.90;;;9.00;87.07;102805.06;5116322;28;20043;-68
2022/12/01 08:26:24;;;;;;;92.60;47.72;;;8.90;99.90;;;9.08;87.28;102800.91;5116223;28;20032;-67
2022/12/01 08:28:52;;;;;;;96.32;49.33;;;8.90;99.90;;;9.32;87.73;102807.00;5116317;28;20113;-67
2022/12/01 08:31:25;;;;;;;90.03;46.88;;;9.10;99.90;;;9.45;87.70;102806.50;5116744;28;20056;-70
2022/12/01 08:33:54;;;;;;;90.65;47.67;;;9.30;99.90;;;9.53;87.13;102802.38;5116247;28;20071;-66
2022/12/01 08:36:23;;;;;;;86.97;45.95;;;9.40;99.90;;;9.62;86.98;102797.34;5116389;28;20528;-67
2022/12/01 08:38:54;;;;;;;88.25;46.78;;;9.50;99.90;;;9.88;86.38;102817.56;5116008;28;20050;-67
2022/12/01 08:41:23;;;;;;;;;;;9.70;99.90;;;9.75;86.37;102759.00;5116447;28;20430;-67
2022/12/01 08:43:51;;;;;;;94.47;47.78;;;10.00;99.90;;;10.33;86.32;102807.44;5115976;28;19927;-67
2022/12/01 08:46:33;;;;;;;81.20;45.92;;;10.20;99.90;;;10.44;84.96;102794.47;5116071;28;20043;-67
2022/12/01 08:49:03;;;;;;;87.60;46.35;;;10.40;99.90;;;10.73;83.97;102820.88;5115760;28;20048;-67
2022/12/01 08:51:32;;;;;;;89.07;47.22;;;10.60;99.90;;;11.03;83.56;102820.78;5116068;28;20101;-67
2022/12/01 08:54:00;;;;;;;86.53;45.75;;;10.90;99.90;;;11.20;82.45;102818.53;5115719;28;20043;-67
2022/12/01 08:56:32;;;;;;;82.95;45.33;;;11.10;99.90;;;11.44;81.47;102822.63;5115666;28;20058;-67
2022/12/01 08:59:00;;;;;;;83.07;44.50;;;11.30;99.90;;;11.64;80.27;102820.44;5115977;28;20039;-66
2022/12/01 09:01:31;;;;;;;78.95;43.03;;;11.50;99.90;;;11.72;79.07;102819.81;5115891;28;20043;-67
2022/12/01 09:04:08;;;;;;;82.45;45.72;;;11.60;99.90;;;12.01;78.10;102819.53;5115854;28;20039;-67
2022/12/01 09:06:40;;;;;;;81.50;46.13;;;11.90;99.90;;;12.10;76.98;102823.25;5115331;28;20579;-67
2022/12/01 09:09:10;;;;;;;77.15;43.95;;;12.00;99.90;;;12.17;76.24;102819.88;5115691;28;20054;-67
2022/12/01 09:11:40;;;;;;;75.18;44.72;;;12.00;99.90;;;12.45;76.02;102823.97;5115409;28;20070;-67
2022/12/01 09:14:08;;;;;;;84.45;44.53;;;12.20;99.90;;;12.56;74.97;102825.94;5114697;28;20139;-67
2022/12/01 09:16:38;;;;;;;79.45;43.20;;;12.40;99.90;;;12.82;74.71;102825.53;5115265;28;20057;-67
2022/12/01 09:19:06;;;;;;;80.45;43.22;;;12.60;99.90;;;13.05;73.59;102830.41;5115172;28;20085;-67
2022/12/01 09:21:36;;;;;;;78.30;43.08;;;12.90;99.90;;;12.98;72.74;102823.19;5115581;28;20051;-66
2022/12/01 09:24:07;;;;;;;76.15;42.42;;;12.90;99.90;;;13.01;71.89;102823.22;5115882;28;20040;-66
2022/12/01 09:26:35;;;;;;;;;;;12.90;99.90;;;13.06;71.82;102829.56;5115552;28;20047;-67
2022/12/01 09:29:07;;;;;;;74.95;42.65;;;13.00;99.90;;;13.22;71.34;102833.38;5115431;28;19920;-67
2022/12/01 09:31:37;;;;;;;78.18;40.92;;;13.10;99.90;;;13.36;71.90;102816.75;5115410;28;20066;-66
2022/12/01 09:34:08;;;;;;;72.72;42.30;;;13.30;99.90;;;13.63;71.11;102808.28;5115315;28;20539;-67
2022/12/01 09:36:38;;;;;;;76.75;42.08;;;13.60;99.90;;;13.84;70.03;102829.00;5096990;28;20040;-67
2022/12/01 09:39:08;;;;;;;74.82;42.05;;;13.70;99.90;;;13.86;68.38;102829.91;5115469;28;20044;-66
2022/12/01 09:41:41;;;;;;;72.53;41.55;;;13.80;99.90;;;13.77;68.06;102825.34;5114864;28;20036;-67
2022/12/01 09:44:19;;;;;;;70.68;41.67;;;13.70;99.90;;;13.39;68.09;102813.25;5115035;28;20055;-67
2022/12/01 09:46:53;;;;;;;75.22;42.50;;;13.40;99.90;;;13.26;68.44;102830.75;5096703;28;20479;-66
2022/12/01 09:49:25;;;;;;;80.25;42.55;;;13.20;99.90;;;13.21;68.71;102831.56;5115185;28;20119;-67
2022/12/01 09:51:54;;;;;;;75.75;42.83;;;13.10;99.90;;;13.15;69.45;102827.06;5114431;28;20040;-67
2022/12/01 09:54:23;;;;;;;73.82;42.83;;;13.00;99.90;;;12.98;70.25;102828.50;5114856;28;20028;-67
2022/12/01 09:56:54;;;;;;;78.22;42.47;;;12.90;99.90;;;12.72;69.62;102829.78;5114429;28;20065;-67
2022/12/01 09:59:25;;;;;;;74.80;44.20;;;12.70;99.90;;;12.72;70.32;102819.16;5114794;28;20118;-67
2022/12/01 10:01:59;;;;;;;;;;;12.60;99.90;;;12.62;71.26;102802.19;5115126;28;20039;-67
2022/12/01 10:04:34;;;;;;;77.93;42.80;;;12.60;99.90;;;12.73;71.27;102817.41;5114695;28;19980;-67
2022/12/01 10:07:06;;;;;;;82.97;44.25;;;12.60;99.90;;;12.81;71.55;102810.47;5114856;28;20123;-67
2022/12/01 10:09:41;;;;;;;76.10;44.40;;;12.70;99.90;;;12.77;71.17;102812.19;5114325;28;20535;-67
2022/12/01 10:12:16;;;;;;;80.38;44.20;;;12.60;99.90;;;12.61;70.78;102805.72;5114313;28;20048;-67
2022/12/01 10:14:46;;;;;;;78.97;44.42;;;12.50;99.90;;;12.47;71.17;102785.97;5114497;28;20044;-67
2022/12/01 10:17:29;;;;;;;76.07;43.42;;;12.50;99.90;;;12.54;71.45;102801.13;5114699;28;20067;-67
2022/12/01 10:20:04;;;;;;;78.78;42.80;;;12.50;99.90;;;12.52;71.45;102807.31;5114046;28;20055;-68
2022/12/01 10:23:17;;;;;;;78.82;43.38;;;12.40;99.90;;;12.45;71.63;102800.06;5096053;28;20062;-66
2022/12/01 10:25:56;;;;;;;79.30;43.88;;;12.30;99.90;;;12.39;72.18;102802.59;5093870;28;20485;-66
2022/12/01 10:28:46;;;;;;;78.13;41.85;;;12.30;99.90;;;12.67;72.39;102795.22;5113884;28;20058;-67
2022/12/01 10:31:20;;;;;;;77.73;45.00;;;12.50;99.90;;;12.97;72.04;102797.47;5114232;28;20044;-67
2022/12/01 10:34:00;;;;;;;76.22;43.55;;;12.80;99.90;;;12.98;70.44;102798.38;5095847;28;20293;-67
2022/12/01 10:36:32;;;;;;;76.45;43.42;;;12.80;99.90;;;13.26;70.17;102797.97;5113935;28;20463;-67
2022/12/01 10:39:01;;;;;;;72.90;41.67;;;13.10;99.90;;;13.35;69.36;102800.78;5113866;28;20055;-66